createdAt,value
2022-08-28T00:02:28.737Z,33.79
2022-08-28T00:04:59.621Z,33.80
2022-08-28T00:07:30.570Z,33.80
2022-08-28T00:10:01.833Z,33.80
2022-08-28T00:12:44.079Z,33.79
2022-08-28T00:15:18.922Z,33.75
2022-08-28T00:17:50.045Z,33.75
2022-08-28T00:20:23.836Z,33.75
2022-08-28T00:22:55.911Z,33.75
2022-08-28T00:25:31.285Z,33.73
2022-08-28T00:28:08.752Z,33.71
2022-08-28T00:30:43.803Z,33.70
2022-08-28T00:33:19.134Z,33.71
2022-08-28T00:35:52.078Z,33.71
2022-08-28T00:38:24.819Z,33.70
2022-08-28T00:41:00.565Z,33.70
2022-08-28T00:43:43.734Z,33.70
2022-08-28T00:46:18.001Z,33.70
2022-08-28T00:48:49.661Z,33.70
2022-08-28T00:51:39.936Z,33.70
2022-08-28T00:54:11.851Z,33.66
2022-08-28T00:56:45.852Z,33.65
2022-08-28T00:59:22.637Z,33.65
2022-08-28T01:01:58.153Z,33.64
2022-08-28T01:04:32.728Z,33.64
2022-08-28T01:07:08.674Z,33.65
2022-08-28T01:09:47.457Z,33.65
2022-08-28T01:12:22.118Z,33.66
2022-08-28T01:15:00.540Z,33.64
2022-08-28T01:17:36.740Z,33.64
2022-08-28T01:20:17.981Z,33.65
2022-08-28T01:22:59.879Z,33.64
2022-08-28T01:25:37.665Z,33.64
2022-08-28T01:28:16.307Z,33.64
2022-08-28T01:30:56.324Z,33.64
2022-08-28T01:33:27.955Z,33.62
2022-08-28T01:35:59.787Z,33.62
2022-08-28T01:38:30.787Z,33.61
2022-08-28T01:41:03.844Z,33.63
2022-08-28T01:43:35.331Z,33.64
2022-08-28T01:46:10.902Z,33.64
2022-08-28T01:48:45.699Z,33.64
2022-08-28T01:51:19.472Z,33.63
2022-08-28T01:53:53.020Z,33.61
2022-08-28T01:56:27.068Z,33.62
2022-08-28T01:58:58.260Z,33.62
2022-08-28T02:01:29.170Z,33.62
2022-08-28T02:04:00.168Z,33.61
2022-08-28T02:06:31.477Z,33.62
2022-08-28T02:09:02.983Z,33.62
2022-08-28T02:11:36.040Z,33.62
2022-08-28T02:14:06.679Z,33.62
2022-08-28T02:16:37.633Z,33.63
2022-08-28T02:19:08.444Z,33.62
2022-08-28T02:21:39.872Z,33.61
2022-08-28T02:24:11.587Z,33.61
2022-08-28T02:26:45.086Z,33.62
2022-08-28T02:29:16.533Z,33.62
2022-08-28T02:31:47.460Z,33.61
2022-08-28T02:34:18.077Z,33.57
2022-08-28T02:36:51.466Z,33.59
2022-08-28T02:39:22.549Z,33.59
2022-08-28T02:41:55.260Z,33.59
2022-08-28T02:44:26.083Z,33.57
2022-08-28T02:46:56.106Z,33.56
2022-08-28T02:49:27.015Z,33.58
2022-08-28T02:52:03.411Z,33.60
2022-08-28T02:54:34.729Z,33.60
2022-08-28T02:57:08.741Z,33.60
2022-08-28T02:59:40.955Z,33.61
2022-08-28T03:02:11.779Z,33.62
2022-08-28T03:04:43.503Z,33.64
2022-08-28T03:07:15.861Z,33.64
2022-08-28T03:09:47.371Z,33.63
2022-08-28T03:12:24.512Z,33.62
2022-08-28T03:14:56.090Z,33.60
2022-08-28T03:17:26.932Z,33.61
2022-08-28T03:19:57.683Z,33.61
2022-08-28T03:22:41.405Z,33.62
2022-08-28T03:25:13.795Z,33.61
2022-08-28T03:27:47.155Z,33.60
2022-08-28T03:30:18.658Z,33.61
2022-08-28T03:32:49.666Z,33.59
2022-08-28T03:35:20.910Z,33.61
2022-08-28T03:37:51.825Z,33.60
2022-08-28T03:40:23.162Z,33.59
2022-08-28T03:42:56.354Z,33.60
2022-08-28T03:45:27.332Z,33.62
2022-08-28T03:47:58.666Z,33.62
2022-08-28T03:50:31.089Z,33.63
2022-08-28T03:53:02.243Z,33.63
2022-08-28T03:55:33.620Z,33.63
2022-08-28T03:58:06.997Z,33.65
2022-08-28T04:00:38.049Z,33.66
2022-08-28T04:03:09.504Z,33.65
2022-08-28T04:05:39.518Z,33.64
2022-08-28T04:08:11.577Z,33.63
2022-08-28T04:10:42.748Z,33.63
2022-08-28T04:13:16.969Z,33.65
2022-08-28T04:15:49.458Z,33.62
2022-08-28T04:18:20.326Z,33.60
2022-08-28T04:21:02.766Z,33.61
2022-08-28T04:23:34.177Z,33.60
2022-08-28T04:26:07.622Z,33.59
2022-08-28T04:28:41.179Z,33.59
2022-08-28T04:31:11.998Z,33.59
2022-08-28T04:33:44.272Z,33.60
2022-08-28T04:36:19.302Z,33.61
2022-08-28T04:38:51.234Z,33.61
2022-08-28T04:41:22.109Z,33.62
2022-08-28T04:43:57.341Z,33.61
2022-08-28T04:46:31.254Z,33.61
2022-08-28T04:49:02.732Z,33.62
2022-08-28T04:51:36.817Z,33.63
2022-08-28T04:54:11.270Z,33.64
2022-08-28T04:56:44.548Z,33.66
2022-08-28T04:59:17.121Z,33.67
2022-08-28T05:01:48.689Z,33.67
2022-08-28T05:04:20.333Z,33.67
2022-08-28T05:06:51.721Z,33.68
2022-08-28T05:09:23.721Z,33.71
2022-08-28T05:11:54.634Z,33.72
2022-08-28T05:14:28.058Z,33.74
2022-08-28T05:16:59.612Z,33.77
2022-08-28T05:19:31.373Z,33.79
2022-08-28T05:22:02.604Z,33.82
2022-08-28T05:24:33.575Z,33.85
2022-08-28T05:27:03.924Z,33.89
2022-08-28T05:29:37.142Z,33.92
2022-08-28T05:32:09.241Z,33.95
2022-08-28T05:34:40.170Z,33.98
2022-08-28T05:37:10.654Z,34.01
2022-08-28T05:39:42.424Z,34.04
2022-08-28T05:42:13.311Z,34.03
2022-08-28T05:44:46.462Z,34.03
2022-08-28T05:47:17.225Z,34.03
2022-08-28T05:49:53.332Z,34.05
2022-08-28T05:52:24.358Z,34.08
2022-08-28T05:55:10.115Z,34.12
2022-08-28T05:57:41.814Z,34.15
2022-08-28T06:00:19.163Z,34.20
2022-08-28T06:02:51.225Z,34.24
2022-08-28T06:05:23.470Z,34.29
2022-08-28T06:07:54.344Z,34.34
2022-08-28T06:10:25.344Z,34.39
2022-08-28T06:12:56.842Z,34.45
2022-08-28T06:15:29.851Z,34.52
2022-08-28T06:18:00.662Z,34.58
2022-08-28T06:20:31.442Z,34.63
2022-08-28T06:23:01.700Z,34.64
2022-08-28T06:25:32.707Z,34.64
2022-08-28T06:28:03.335Z,34.65
2022-08-28T06:30:40.006Z,34.68
2022-08-28T06:33:12.836Z,34.72
2022-08-28T06:35:49.794Z,34.76
2022-08-28T06:38:24.067Z,34.79
2022-08-28T06:40:58.467Z,34.84
2022-08-28T06:43:31.515Z,34.88
2022-08-28T06:46:05.493Z,34.90
2022-08-28T06:48:36.867Z,34.93
2022-08-28T06:51:11.500Z,34.97
2022-08-28T06:53:46.139Z,35.02
2022-08-28T06:56:26.251Z,35.05
2022-08-28T06:59:01.653Z,35.05
2022-08-28T07:01:38.376Z,35.10
2022-08-28T07:04:12.849Z,35.14
2022-08-28T07:06:47.207Z,35.17
2022-08-28T07:09:21.229Z,35.21
2022-08-28T07:11:52.072Z,35.27
2022-08-28T07:14:23.822Z,35.31
2022-08-28T07:17:01.243Z,35.36
2022-08-28T07:19:31.971Z,35.40
2022-08-28T07:22:02.672Z,35.44
2022-08-28T07:24:34.103Z,35.48
2022-08-28T07:27:06.266Z,35.51
2022-08-28T07:29:37.181Z,35.55
2022-08-28T07:32:10.339Z,35.62
2022-08-28T07:34:42.510Z,35.68
2022-08-28T07:37:15.421Z,35.75
2022-08-28T07:39:47.446Z,35.81
2022-08-28T07:42:38.654Z,35.88
2022-08-28T07:45:09.511Z,35.93
2022-08-28T07:47:42.964Z,35.98
2022-08-28T07:50:13.749Z,36.01
2022-08-28T07:52:44.532Z,36.08
2022-08-28T07:55:15.042Z,36.15
2022-08-28T07:57:45.522Z,36.23
2022-08-28T08:00:18.016Z,36.26
2022-08-28T08:02:51.269Z,36.28
2022-08-28T08:05:22.544Z,36.33
2022-08-28T08:07:53.474Z,36.37
2022-08-28T08:10:24.438Z,36.43
2022-08-28T08:12:55.352Z,36.46
2022-08-28T08:15:31.257Z,36.48
2022-08-28T08:18:03.961Z,36.47
2022-08-28T08:20:35.102Z,36.47
2022-08-28T08:23:06.706Z,36.48
2022-08-28T08:25:36.990Z,36.52
2022-08-28T08:28:08.047Z,36.57
2022-08-28T08:30:40.302Z,36.56
2022-08-28T08:33:13.840Z,36.58
2022-08-28T08:35:44.994Z,36.58
2022-08-28T08:38:15.788Z,36.61
2022-08-28T08:40:46.213Z,36.63
2022-08-28T08:43:20.594Z,36.68
2022-08-28T08:45:53.014Z,36.70
2022-08-28T08:48:35.191Z,36.73
2022-08-28T08:51:17.121Z,36.77
2022-08-28T08:54:06.965Z,36.79
2022-08-28T08:56:37.356Z,36.79
2022-08-28T08:59:15.733Z,36.85
2022-08-28T09:01:56.339Z,36.88
2022-08-28T09:04:47.801Z,36.90
2022-08-28T09:07:26.309Z,36.91
2022-08-28T09:10:00.702Z,36.95
2022-08-28T09:12:38.623Z,37.00
2022-08-28T09:15:18.807Z,37.06
2022-08-28T09:17:57.023Z,37.07
2022-08-28T09:20:34.333Z,37.03
2022-08-28T09:23:13.415Z,36.99
2022-08-28T09:25:57.090Z,37.00
2022-08-28T09:28:36.952Z,37.03
2022-08-28T09:31:11.960Z,37.05
2022-08-28T09:33:49.162Z,37.08
2022-08-28T09:36:35.944Z,37.10
2022-08-28T09:39:17.181Z,37.10
2022-08-28T09:42:20.156Z,37.13
2022-08-28T09:45:09.195Z,37.15
2022-08-28T09:47:50.958Z,37.19
2022-08-28T09:50:39.829Z,37.19
2022-08-28T09:53:35.026Z,37.16
2022-08-28T09:56:20.634Z,37.12
2022-08-28T09:58:55.224Z,37.10
2022-08-28T10:01:55.438Z,37.11
2022-08-28T10:04:53.231Z,37.10
2022-08-28T10:07:36.023Z,37.11
2022-08-28T10:10:38.695Z,37.11
2022-08-28T10:13:18.766Z,37.11
2022-08-28T10:16:20.759Z,37.12
2022-08-28T10:19:04.336Z,37.09
2022-08-28T10:21:43.076Z,37.12
2022-08-28T10:24:39.494Z,37.12
2022-08-28T10:27:28.939Z,37.10
2022-08-28T10:30:12.911Z,37.06
2022-08-28T10:33:23.617Z,37.06
2022-08-28T10:36:04.056Z,37.07
2022-08-28T10:38:42.919Z,37.07
2022-08-28T10:41:23.161Z,37.09
2022-08-28T10:43:59.772Z,37.10
2022-08-28T10:46:36.777Z,37.12
2022-08-28T10:49:14.435Z,37.09
2022-08-28T10:52:02.318Z,37.07
2022-08-28T10:54:45.516Z,37.03
2022-08-28T10:57:38.720Z,37.00
2022-08-28T11:00:18.352Z,36.96
2022-08-28T11:02:54.823Z,36.97
2022-08-28T11:05:28.091Z,37.00
2022-08-28T11:08:02.797Z,37.02
2022-08-28T11:10:59.218Z,36.99
2022-08-28T11:13:55.520Z,36.96
2022-08-28T11:16:44.443Z,36.97
2022-08-28T11:20:03.495Z,36.95
2022-08-28T11:22:43.582Z,36.91
2022-08-28T11:25:26.733Z,36.91
2022-08-28T11:28:44.492Z,36.88
2022-08-28T11:31:39.183Z,36.89
2022-08-28T11:34:09.890Z,36.89
2022-08-28T11:37:03.195Z,36.88
2022-08-28T11:39:34.012Z,36.87
2022-08-28T11:42:38.398Z,36.87
2022-08-28T11:45:11.996Z,36.85
2022-08-28T11:47:59.510Z,36.84
2022-08-28T11:50:35.257Z,36.84
2022-08-28T11:53:44.945Z,36.83
2022-08-28T11:56:50.158Z,36.82
2022-08-28T11:59:50.149Z,36.79
2022-08-28T12:02:55.134Z,36.75
2022-08-28T12:06:03.475Z,36.69
2022-08-28T12:09:25.964Z,36.66
2022-08-28T12:12:07.755Z,36.67
2022-08-28T12:15:09.850Z,36.67
2022-08-28T12:17:59.959Z,36.67
2022-08-28T12:20:44.406Z,36.67
2022-08-28T12:24:07.155Z,36.64
2022-08-28T12:26:46.998Z,36.63
2022-08-28T12:29:33.643Z,36.62
2022-08-28T12:32:33.394Z,36.59
2022-08-28T12:35:22.350Z,36.54
2022-08-28T12:38:07.148Z,36.48
2022-08-28T12:40:53.960Z,36.42
2022-08-28T12:43:35.190Z,36.38
2022-08-28T12:46:19.043Z,36.34
2022-08-28T12:48:54.626Z,36.29
2022-08-28T12:51:30.484Z,36.26
2022-08-28T12:54:04.429Z,36.27
2022-08-28T12:56:41.728Z,36.24
2022-08-28T12:59:28.641Z,36.21
2022-08-28T13:02:08.045Z,36.20
2022-08-28T13:04:42.327Z,36.18
2022-08-28T13:07:17.087Z,36.18
2022-08-28T13:09:54.602Z,36.15
2022-08-28T13:12:55.244Z,36.15
2022-08-28T13:16:02.771Z,36.11
2022-08-28T13:18:52.396Z,36.11
2022-08-28T13:21:38.231Z,36.09
2022-08-28T13:24:49.283Z,36.04
2022-08-28T13:27:40.041Z,36.02
2022-08-28T13:30:34.038Z,36.01
2022-08-28T13:33:21.842Z,35.99
2022-08-28T13:35:53.707Z,35.94
2022-08-28T13:38:27.366Z,35.91
2022-08-28T13:41:01.804Z,35.90
2022-08-28T13:43:48.437Z,35.87
2022-08-28T13:46:19.415Z,35.86
2022-08-28T13:48:50.535Z,35.84
2022-08-28T13:51:21.792Z,35.80
2022-08-28T13:53:52.634Z,35.77
2022-08-28T13:56:23.359Z,35.78
2022-08-28T13:58:57.986Z,35.76
2022-08-28T14:01:49.279Z,35.75
2022-08-28T14:04:18.335Z,35.75
2022-08-28T14:06:49.289Z,35.74
2022-08-28T14:09:20.789Z,35.73
2022-08-28T14:11:55.070Z,35.71
2022-08-28T14:14:28.656Z,35.67
2022-08-28T14:16:59.849Z,35.64
2022-08-28T14:19:31.746Z,35.64
2022-08-28T14:22:03.321Z,35.64
2022-08-28T14:24:34.595Z,35.64
2022-08-28T14:27:05.177Z,35.61
2022-08-28T14:29:39.530Z,35.58
2022-08-28T14:32:10.793Z,35.56
2022-08-28T14:34:41.832Z,35.55
2022-08-28T14:37:12.491Z,35.54
2022-08-28T14:39:43.430Z,35.51
2022-08-28T14:42:13.923Z,35.50
2022-08-28T14:44:47.310Z,35.50
2022-08-28T14:47:18.431Z,35.47
2022-08-28T14:49:50.640Z,35.41
2022-08-28T14:52:22.942Z,35.33
2022-08-28T14:54:54.522Z,35.31
2022-08-28T14:57:24.924Z,35.30
2022-08-28T14:59:58.340Z,35.31
2022-08-28T15:02:29.582Z,35.31
2022-08-28T15:05:00.212Z,35.32
2022-08-28T15:07:32.960Z,35.30
2022-08-28T15:10:03.772Z,35.26
2022-08-28T15:12:34.303Z,35.23
2022-08-28T15:15:07.411Z,35.18
2022-08-28T15:17:38.250Z,35.18
2022-08-28T15:20:11.292Z,35.15
2022-08-28T15:22:42.666Z,35.08
2022-08-28T15:25:13.008Z,35.04
2022-08-28T15:27:43.492Z,35.04
2022-08-28T15:30:19.711Z,35.06
2022-08-28T15:32:51.187Z,35.01
2022-08-28T15:35:21.685Z,34.96
2022-08-28T15:37:54.002Z,34.94
2022-08-28T15:40:41.787Z,34.94
2022-08-28T15:43:13.596Z,34.94
2022-08-28T15:45:46.828Z,34.93
2022-08-28T15:48:17.093Z,34.92
2022-08-28T15:50:48.042Z,34.91
2022-08-28T15:53:20.456Z,34.90
2022-08-28T15:55:51.087Z,34.89
2022-08-28T15:58:22.895Z,34.89
2022-08-28T16:00:56.195Z,34.86
2022-08-28T16:03:28.986Z,34.84
2022-08-28T16:06:00.310Z,34.85
2022-08-28T16:08:32.679Z,34.84
2022-08-28T16:11:04.094Z,34.84
2022-08-28T16:13:36.125Z,34.85
2022-08-28T16:16:09.022Z,34.87
2022-08-28T16:18:40.167Z,34.86
2022-08-28T16:21:12.746Z,34.86
2022-08-28T16:23:43.928Z,34.86
2022-08-28T16:26:16.378Z,34.87
2022-08-28T16:28:48.222Z,34.86
2022-08-28T16:31:21.757Z,34.84
2022-08-28T16:33:54.061Z,34.83
2022-08-28T16:36:26.387Z,34.82
2022-08-28T16:39:03.452Z,34.81
2022-08-28T16:41:34.996Z,34.80
2022-08-28T16:44:06.641Z,34.80
2022-08-28T16:46:38.749Z,34.78
2022-08-28T16:49:09.719Z,34.76
2022-08-28T16:51:41.353Z,34.73
2022-08-28T16:54:12.051Z,34.71
2022-08-28T16:56:42.904Z,34.69
2022-08-28T16:59:16.985Z,34.69
2022-08-28T17:01:52.998Z,34.71
2022-08-28T17:04:26.031Z,34.70
2022-08-28T17:06:57.439Z,34.67
2022-08-28T17:09:29.273Z,34.67
2022-08-28T17:12:00.247Z,34.66
2022-08-28T17:14:30.716Z,34.62
2022-08-28T17:17:03.032Z,34.62
2022-08-28T17:19:34.366Z,34.60
2022-08-28T17:22:24.122Z,34.59
2022-08-28T17:24:59.609Z,34.58
2022-08-28T17:27:32.675Z,34.59
2022-08-28T17:30:05.870Z,34.60
2022-08-28T17:32:38.560Z,34.61
2022-08-28T17:35:09.915Z,34.62
2022-08-28T17:37:41.484Z,34.56
2022-08-28T17:40:19.495Z,34.57
2022-08-28T17:42:54.507Z,34.56
2022-08-28T17:45:25.550Z,34.55
2022-08-28T17:47:59.108Z,34.54
2022-08-28T17:50:35.385Z,34.54
2022-08-28T17:53:05.837Z,34.53
2022-08-28T17:55:37.184Z,34.54
2022-08-28T17:58:08.180Z,34.55
2022-08-28T18:00:39.365Z,34.57
2022-08-28T18:03:12.481Z,34.58
2022-08-28T18:05:44.248Z,34.56
2022-08-28T18:08:16.136Z,34.53
2022-08-28T18:10:46.683Z,34.53
2022-08-28T18:13:18.032Z,34.53
2022-08-28T18:15:54.458Z,34.53
2022-08-28T18:18:36.244Z,34.53
2022-08-28T18:21:08.760Z,34.53
2022-08-28T18:23:40.373Z,34.52
2022-08-28T18:26:12.148Z,34.53
2022-08-28T18:28:43.040Z,34.53
2022-08-28T18:31:14.293Z,34.52
2022-08-28T18:33:47.476Z,34.51
2022-08-28T18:36:18.935Z,34.49
2022-08-28T18:38:49.345Z,34.48
2022-08-28T18:41:20.585Z,34.49
2022-08-28T18:43:51.839Z,34.50
2022-08-28T18:46:22.725Z,34.51
2022-08-28T18:48:55.236Z,34.52
2022-08-28T18:51:28.720Z,34.51
2022-08-28T18:54:01.370Z,34.49
2022-08-28T18:56:36.024Z,34.46
2022-08-28T18:59:08.652Z,34.45
2022-08-28T19:01:40.619Z,34.45
2022-08-28T19:04:16.354Z,34.45
2022-08-28T19:06:48.387Z,34.44
2022-08-28T19:09:21.731Z,34.45
2022-08-28T19:11:52.843Z,34.42
2022-08-28T19:14:24.403Z,34.42
2022-08-28T19:16:56.074Z,34.40
2022-08-28T19:19:29.160Z,34.40
2022-08-28T19:21:59.921Z,34.41
2022-08-28T19:24:34.695Z,34.42
2022-08-28T19:27:05.235Z,34.38
2022-08-28T19:29:36.029Z,34.35
2022-08-28T19:32:06.874Z,34.33
2022-08-28T19:34:39.193Z,34.34
2022-08-28T19:37:12.232Z,34.34
2022-08-28T19:39:44.544Z,34.32
2022-08-28T19:42:29.060Z,34.30
2022-08-28T19:45:00.009Z,34.31
2022-08-28T19:47:35.352Z,34.31
2022-08-28T19:50:10.859Z,34.32
2022-08-28T19:52:41.868Z,34.33
2022-08-28T19:55:18.166Z,34.35
2022-08-28T19:57:50.051Z,34.35
2022-08-28T20:00:24.648Z,34.35
2022-08-28T20:02:56.084Z,34.32
2022-08-28T20:05:29.198Z,34.31
2022-08-28T20:08:00.125Z,34.28
2022-08-28T20:10:32.084Z,34.26
2022-08-28T20:13:03.498Z,34.25
2022-08-28T20:15:34.646Z,34.27
2022-08-28T20:18:08.641Z,34.27
2022-08-28T20:20:42.268Z,34.28
2022-08-28T20:23:13.091Z,34.24
2022-08-28T20:25:49.485Z,34.22
2022-08-28T20:28:21.715Z,34.21
2022-08-28T20:30:52.111Z,34.20
2022-08-28T20:33:23.038Z,34.20
2022-08-28T20:36:03.498Z,34.23
2022-08-28T20:38:34.955Z,34.21
2022-08-28T20:41:11.584Z,34.22
2022-08-28T20:43:45.228Z,34.19
2022-08-28T20:46:17.647Z,34.20
2022-08-28T20:48:48.536Z,34.21
2022-08-28T20:51:42.620Z,34.20
2022-08-28T20:54:13.761Z,34.19
2022-08-28T20:56:45.123Z,34.20
2022-08-28T20:59:15.958Z,34.18
2022-08-28T21:01:47.066Z,34.19
2022-08-28T21:04:17.722Z,34.21
2022-08-28T21:06:50.634Z,34.24
2022-08-28T21:09:23.482Z,34.23
2022-08-28T21:12:13.312Z,34.21
2022-08-28T21:14:44.253Z,34.21
2022-08-28T21:17:29.967Z,34.20
2022-08-28T21:20:04.433Z,34.19
2022-08-28T21:22:37.572Z,34.18
2022-08-28T21:25:10.471Z,34.18
2022-08-28T21:27:41.400Z,34.17
2022-08-28T21:30:16.346Z,34.20
2022-08-28T21:32:47.585Z,34.20
2022-08-28T21:35:22.196Z,34.20
2022-08-28T21:37:54.938Z,34.19
2022-08-28T21:40:26.254Z,34.19
2022-08-28T21:42:56.973Z,34.20
2022-08-28T21:45:27.905Z,34.16
2022-08-28T21:47:58.506Z,34.15
2022-08-28T21:50:29.628Z,34.16
2022-08-28T21:53:03.021Z,34.16
2022-08-28T21:55:33.209Z,34.17
2022-08-28T21:58:03.848Z,34.18
2022-08-28T22:00:34.338Z,34.20
2022-08-28T22:03:05.216Z,34.20
2022-08-28T22:05:35.941Z,34.21
2022-08-28T22:08:09.116Z,34.19
2022-08-28T22:10:40.705Z,34.19
2022-08-28T22:13:12.459Z,34.18
2022-08-28T22:15:45.828Z,34.17
2022-08-28T22:18:18.232Z,34.16
2022-08-28T22:21:07.364Z,34.15
2022-08-28T22:23:40.501Z,34.13
2022-08-28T22:26:16.908Z,34.10
2022-08-28T22:28:48.220Z,34.08
2022-08-28T22:31:18.608Z,34.04
2022-08-28T22:33:49.497Z,34.03
2022-08-28T22:36:20.378Z,34.02
2022-08-28T22:38:54.380Z,34.01
2022-08-28T22:41:25.781Z,34.01
2022-08-28T22:43:57.276Z,34.01
2022-08-28T22:46:28.465Z,34.01
2022-08-28T22:48:59.576Z,34.02
2022-08-28T22:51:29.883Z,34.02
2022-08-28T22:54:03.093Z,34.01
2022-08-28T22:56:33.781Z,34.00
2022-08-28T22:59:03.895Z,33.99
2022-08-28T23:01:35.074Z,33.99
2022-08-28T23:04:06.477Z,34.00
2022-08-28T23:06:40.797Z,34.00
2022-08-28T23:09:12.881Z,34.01
2022-08-28T23:11:43.821Z,34.01
2022-08-28T23:14:15.907Z,34.00
2022-08-28T23:16:46.235Z,33.98
2022-08-28T23:19:16.603Z,33.99
2022-08-28T23:21:47.420Z,34.00
2022-08-28T23:24:20.763Z,34.02
2022-08-28T23:26:52.520Z,34.03
2022-08-28T23:29:23.168Z,34.04
2022-08-28T23:31:54.320Z,34.06
2022-08-28T23:34:25.140Z,34.06
2022-08-28T23:36:55.588Z,34.05
2022-08-28T23:39:31.471Z,34.06
2022-08-28T23:42:01.862Z,34.06
2022-08-28T23:44:32.121Z,34.07
2022-08-28T23:47:02.589Z,34.07
2022-08-28T23:49:33.365Z,34.07
2022-08-28T23:52:04.126Z,34.09
2022-08-28T23:54:38.051Z,34.08
2022-08-28T23:57:09.046Z,34.09
2022-08-28T23:59:41.362Z,34.08
